createdAt,value
2019-05-11T00:04:00.884Z,8.10
2019-05-11T00:10:04.955Z,8.20
2019-05-11T00:16:07.522Z,8.20
2019-05-11T00:22:09.003Z,8.40
2019-05-11T00:28:10.709Z,8.40
2019-05-11T00:34:12.270Z,8.20
2019-05-11T00:40:15.103Z,8.20
2019-05-11T00:46:16.957Z,8.10
2019-05-11T00:52:18.559Z,8.10
2019-05-11T00:58:20.135Z,8.10
2019-05-11T01:04:21.689Z,8.10
2019-05-11T01:10:33.795Z,8.10
2019-05-11T01:16:26.580Z,8.00
2019-05-11T01:22:28.012Z,7.90
2019-05-11T01:28:29.520Z,7.90
2019-05-11T01:34:31.017Z,7.90
2019-05-11T01:40:32.526Z,7.80
2019-05-11T01:46:36.676Z,7.80
2019-05-11T01:52:38.239Z,7.80
2019-05-11T01:58:39.690Z,7.80
2019-05-11T02:04:41.114Z,7.80
2019-05-11T02:10:42.653Z,7.80
2019-05-11T02:16:44.306Z,7.70
2019-05-11T02:22:45.940Z,7.70
2019-05-11T02:28:47.560Z,7.70
2019-05-11T02:34:49.093Z,7.70
2019-05-11T02:40:50.618Z,7.70
2019-05-11T02:46:52.288Z,7.70
2019-05-11T02:52:54.005Z,7.70
2019-05-11T02:58:58.631Z,7.60
2019-05-11T03:05:00.154Z,7.60
2019-05-11T03:11:01.771Z,7.60
2019-05-11T03:17:17.480Z,7.50
2019-05-11T03:23:19.020Z,7.50
2019-05-11T03:29:20.445Z,7.50
2019-05-11T03:35:21.944Z,7.50
2019-05-11T03:41:23.418Z,7.60
2019-05-11T03:47:24.967Z,7.60
2019-05-11T03:53:26.400Z,7.50
2019-05-11T03:59:27.932Z,7.50
2019-05-11T04:05:29.620Z,7.60
2019-05-11T04:11:31.114Z,7.60
2019-05-11T04:17:32.644Z,7.70
2019-05-11T04:23:34.140Z,7.80
2019-05-11T04:29:35.644Z,8.00
2019-05-11T04:35:38.992Z,8.20
2019-05-11T04:41:40.506Z,8.40
2019-05-11T04:47:42.067Z,8.40
2019-05-11T04:53:43.636Z,8.50
2019-05-11T04:59:45.127Z,8.50
2019-05-11T05:05:47.571Z,8.40
2019-05-11T05:11:50.031Z,8.50
2019-05-11T05:17:51.695Z,8.50
2019-05-11T05:23:53.172Z,8.70
2019-05-11T05:29:54.610Z,8.80
2019-05-11T05:35:56.138Z,8.90
2019-05-11T05:41:57.806Z,9.00
2019-05-11T05:47:59.272Z,9.20
2019-05-11T05:54:00.767Z,9.30
2019-05-11T06:00:02.569Z,9.50
2019-05-11T06:06:04.032Z,9.70
2019-05-11T06:12:05.511Z,9.90
2019-05-11T06:18:07.108Z,10.20
2019-05-11T06:24:09.062Z,10.50
2019-05-11T06:30:10.961Z,10.70
2019-05-11T06:36:12.576Z,11.00
2019-05-11T06:42:14.244Z,11.10
2019-05-11T06:48:15.760Z,11.40
2019-05-11T06:54:17.262Z,11.60
2019-05-11T07:00:18.897Z,12.00
2019-05-11T07:06:20.310Z,12.20
2019-05-11T07:12:21.932Z,12.50
2019-05-11T07:18:23.567Z,12.20
2019-05-11T07:24:25.416Z,12.20
2019-05-11T07:30:27.106Z,12.40
2019-05-11T07:36:31.283Z,12.20
2019-05-11T07:42:32.899Z,11.90
2019-05-11T07:48:34.903Z,11.60
2019-05-11T07:54:38.514Z,11.60
2019-05-11T08:00:40.151Z,11.70
2019-05-11T08:06:41.637Z,11.70
2019-05-11T08:12:43.446Z,11.80
2019-05-11T08:18:44.963Z,11.90
2019-05-11T08:24:49.637Z,12.10
2019-05-11T08:30:51.080Z,12.10
2019-05-11T08:36:52.719Z,12.30
2019-05-11T08:42:54.415Z,12.60
2019-05-11T08:48:55.934Z,12.60
2019-05-11T08:54:57.817Z,12.60
2019-05-11T09:00:59.487Z,12.70
2019-05-11T09:07:02.863Z,13.10
2019-05-11T09:13:04.632Z,13.10
2019-05-11T09:19:08.583Z,13.20
2019-05-11T09:25:09.713Z,12.90
2019-05-11T09:31:12.372Z,12.90
2019-05-11T09:37:13.825Z,13.30
2019-05-11T09:43:17.710Z,13.40
2019-05-11T09:49:21.021Z,13.50
2019-05-11T09:55:22.503Z,13.70
2019-05-11T10:01:24.018Z,13.20
2019-05-11T10:07:25.497Z,13.00
2019-05-11T10:13:28.106Z,13.00
2019-05-11T10:19:31.255Z,13.00
2019-05-11T10:25:33.881Z,13.30
2019-05-11T10:31:38.625Z,13.70
2019-05-11T10:37:41.928Z,14.00
2019-05-11T10:43:43.531Z,14.20
2019-05-11T10:49:45.217Z,14.30
2019-05-11T10:55:50.686Z,14.40
2019-05-11T11:01:52.164Z,14.30
2019-05-11T11:07:53.787Z,13.60
2019-05-11T11:13:55.607Z,13.40
2019-05-11T11:19:58.101Z,12.80
2019-05-11T11:25:59.849Z,12.60
2019-05-11T11:32:02.491Z,13.30
2019-05-11T11:38:04.029Z,12.50
2019-05-11T11:44:07.659Z,12.50
2019-05-11T11:50:09.341Z,12.40
2019-05-11T11:56:11.952Z,12.00
2019-05-11T12:02:13.481Z,12.10
2019-05-11T12:08:15.287Z,12.00
2019-05-11T12:14:18.734Z,12.00
2019-05-11T12:20:20.674Z,11.80
2019-05-11T12:26:22.388Z,11.70
2019-05-11T12:32:27.683Z,11.50
2019-05-11T12:38:30.576Z,11.50
2019-05-11T12:44:32.064Z,11.50
2019-05-11T12:50:34.000Z,11.30
2019-05-11T12:56:35.539Z,11.20
2019-05-11T13:02:38.797Z,11.00
2019-05-11T13:08:40.448Z,11.00
2019-05-11T13:14:41.922Z,10.90
2019-05-11T13:20:45.500Z,10.90
2019-05-11T13:26:48.512Z,11.10
2019-05-11T13:32:50.425Z,10.80
2019-05-11T13:38:51.877Z,11.00
2019-05-11T13:44:53.409Z,11.30
2019-05-11T13:50:55.045Z,11.60
2019-05-11T13:56:57.703Z,11.50
2019-05-11T14:03:01.100Z,11.60
2019-05-11T14:09:58.907Z,11.50
2019-05-11T14:16:00.636Z,11.30
2019-05-11T14:22:02.182Z,11.10
2019-05-11T14:28:04.748Z,10.90
2019-05-11T14:34:08.151Z,10.90
2019-05-11T14:40:10.017Z,10.90
2019-05-11T14:46:11.675Z,10.70
2019-05-11T14:52:19.004Z,10.60
2019-05-11T14:58:20.519Z,10.90
2019-05-11T15:04:22.020Z,11.00
2019-05-11T15:10:23.962Z,10.90
2019-05-11T15:16:27.728Z,10.70
2019-05-11T15:22:28.860Z,10.70
2019-05-11T15:28:30.388Z,10.80
2019-05-11T15:34:31.957Z,10.70
2019-05-11T15:40:33.792Z,10.70
2019-05-11T15:46:35.324Z,10.60
2019-05-11T15:52:39.846Z,10.40
2019-05-11T15:58:58.219Z,10.60
2019-05-11T16:05:02.483Z,10.60
2019-05-11T16:11:04.108Z,10.60
2019-05-11T16:17:05.580Z,10.70
2019-05-11T16:23:07.192Z,10.70
2019-05-11T16:29:11.480Z,10.80
2019-05-11T16:35:12.176Z,10.60
2019-05-11T16:41:17.860Z,10.70
2019-05-11T16:47:20.109Z,10.70
2019-05-11T16:53:21.548Z,10.70
2019-05-11T16:59:23.535Z,10.60
2019-05-11T17:05:26.857Z,10.50
2019-05-11T17:11:28.971Z,10.30
2019-05-11T17:17:30.516Z,10.20
2019-05-11T17:23:32.051Z,10.20
2019-05-11T17:29:33.580Z,10.10
2019-05-11T17:35:35.021Z,10.00
2019-05-11T17:41:38.764Z,10.00
2019-05-11T17:47:39.753Z,10.10
2019-05-11T17:53:41.261Z,10.00
2019-05-11T17:59:42.766Z,10.10
2019-05-11T18:05:44.486Z,10.00
2019-05-11T18:11:48.097Z,10.00
2019-05-11T18:17:49.375Z,10.00
2019-05-11T18:23:50.944Z,10.00
2019-05-11T18:29:52.508Z,10.10
2019-05-11T18:35:53.985Z,10.10
2019-05-11T18:41:58.673Z,10.10
2019-05-11T18:48:00.598Z,10.20
2019-05-11T18:54:02.319Z,10.30
2019-05-11T19:00:08.400Z,10.30
2019-05-11T19:06:10.024Z,10.30
2019-05-11T19:12:11.576Z,10.20
2019-05-11T19:18:13.229Z,10.00
2019-05-11T19:24:14.749Z,9.80
2019-05-11T19:30:18.425Z,9.60
2019-05-11T19:36:19.727Z,9.50
2019-05-11T19:42:21.197Z,9.40
2019-05-11T19:48:22.935Z,9.20
2019-05-11T19:54:25.201Z,9.10
2019-05-11T20:00:26.803Z,9.10
2019-05-11T20:06:29.955Z,9.10
2019-05-11T20:12:31.653Z,9.10
2019-05-11T20:18:33.253Z,9.10
2019-05-11T20:24:34.764Z,9.10
2019-05-11T20:30:38.666Z,9.00
2019-05-11T20:36:40.136Z,9.00
2019-05-11T20:42:42.664Z,9.00
2019-05-11T20:48:44.358Z,8.90
2019-05-11T20:54:47.728Z,8.90
2019-05-11T21:00:49.348Z,8.80
2019-05-11T21:06:50.819Z,8.80
2019-05-11T21:12:52.447Z,8.70
2019-05-11T21:18:54.353Z,8.60
2019-05-11T21:24:58.179Z,8.30
2019-05-11T21:30:59.707Z,8.10
2019-05-11T21:37:01.171Z,8.00
2019-05-11T21:43:02.638Z,7.90
2019-05-11T21:49:07.275Z,7.80
2019-05-11T21:55:09.698Z,7.80
2019-05-11T22:01:11.518Z,7.90
2019-05-11T22:07:13.221Z,7.90
2019-05-11T22:13:14.832Z,7.60
2019-05-11T22:19:17.756Z,7.50
2019-05-11T22:25:19.333Z,7.30
2019-05-11T22:31:20.903Z,7.30
2019-05-11T22:37:22.571Z,7.10
2019-05-11T22:43:24.187Z,7.10
2019-05-11T22:49:25.685Z,6.90
2019-05-11T22:55:31.793Z,6.80
2019-05-11T23:01:33.254Z,6.60
2019-05-11T23:07:35.090Z,6.60
2019-05-11T23:13:38.217Z,6.50
2019-05-11T23:19:39.763Z,6.30
2019-05-11T23:25:41.227Z,6.10
2019-05-11T23:31:42.779Z,6.00
2019-05-11T23:37:44.354Z,6.00
2019-05-11T23:43:48.546Z,6.00
2019-05-11T23:49:50.022Z,6.00
2019-05-11T23:55:51.544Z,5.80
